createdAt,value
2023-02-11T00:01:07.247Z,67.98
2023-02-11T00:03:34.576Z,67.10
2023-02-11T00:06:03.905Z,67.26
2023-02-11T00:08:32.137Z,67.30
2023-02-11T00:10:59.016Z,69.03
2023-02-11T00:13:26.110Z,68.61
2023-02-11T00:15:53.744Z,69.57
2023-02-11T00:18:20.636Z,71.06
2023-02-11T00:20:47.443Z,70.38
2023-02-11T00:23:14.865Z,72.02
2023-02-11T00:25:45.238Z,70.52
2023-02-11T00:28:12.552Z,68.35
2023-02-11T00:30:39.517Z,70.93
2023-02-11T00:33:06.363Z,71.18
2023-02-11T00:35:33.210Z,68.19
2023-02-11T00:37:59.947Z,67.35
2023-02-11T00:40:26.659Z,66.66
2023-02-11T00:42:54.806Z,65.39
2023-02-11T00:45:21.626Z,65.80
2023-02-11T00:47:48.449Z,67.46
2023-02-11T00:50:15.297Z,68.23
2023-02-11T00:52:42.001Z,68.65
2023-02-11T00:55:09.124Z,68.73
2023-02-11T00:57:36.476Z,66.37
2023-02-11T01:00:05.529Z,66.09
2023-02-11T01:02:32.280Z,64.84
2023-02-11T01:04:59.600Z,66.80
2023-02-11T01:07:26.608Z,69.21
2023-02-11T01:09:54.000Z,68.37
2023-02-11T01:12:21.367Z,68.32
2023-02-11T01:14:48.347Z,69.69
2023-02-11T01:17:16.682Z,69.87
2023-02-11T01:19:43.497Z,71.24
2023-02-11T01:22:10.339Z,69.95
2023-02-11T01:24:37.134Z,69.27
2023-02-11T01:27:03.971Z,70.56
2023-02-11T01:29:30.721Z,71.19
2023-02-11T01:31:57.570Z,71.28
2023-02-11T01:34:25.733Z,74.88
2023-02-11T01:36:57.111Z,70.87
2023-02-11T01:39:23.925Z,70.10
2023-02-11T01:41:50.680Z,70.89
2023-02-11T01:44:26.173Z,69.49
2023-02-11T01:46:53.138Z,69.15
2023-02-11T01:49:23.386Z,69.98
2023-02-11T01:51:57.700Z,70.67
2023-02-11T01:54:28.349Z,69.74
2023-02-11T01:57:00.051Z,69.01
2023-02-11T01:59:33.273Z,68.33
2023-02-11T02:02:06.356Z,69.85
2023-02-11T02:04:38.784Z,70.15
2023-02-11T02:07:13.861Z,68.10
2023-02-11T02:09:44.189Z,67.76
2023-02-11T02:12:11.035Z,66.71
2023-02-11T02:14:39.395Z,68.29
2023-02-11T02:17:06.391Z,70.77
2023-02-11T02:19:58.630Z,72.41
2023-02-11T02:22:49.176Z,70.37
2023-02-11T02:25:40.608Z,70.67
2023-02-11T02:28:25.676Z,68.23
2023-02-11T02:31:20.062Z,65.98
2023-02-11T02:33:55.617Z,66.60
2023-02-11T02:36:28.321Z,67.00
2023-02-11T02:39:00.667Z,66.03
2023-02-11T02:41:30.125Z,65.32
2023-02-11T02:43:57.199Z,68.19
2023-02-11T02:46:26.643Z,67.76
2023-02-11T02:48:56.971Z,68.06
2023-02-11T02:51:45.422Z,68.55
2023-02-11T02:54:45.855Z,68.03
2023-02-11T02:57:29.154Z,66.18
2023-02-11T03:00:12.654Z,68.64
2023-02-11T03:02:51.063Z,71.44
2023-02-11T03:05:23.334Z,70.66
2023-02-11T03:07:56.868Z,73.89
2023-02-11T03:10:28.338Z,68.22
2023-02-11T03:12:56.857Z,65.68
2023-02-11T03:15:25.964Z,67.16
2023-02-11T03:17:56.551Z,68.89
2023-02-11T03:20:25.044Z,69.22
2023-02-11T03:22:58.108Z,71.21
2023-02-11T03:25:30.156Z,69.26
2023-02-11T03:28:07.208Z,68.10
2023-02-11T03:30:40.292Z,66.02
2023-02-11T03:33:13.332Z,65.32
2023-02-11T03:35:46.129Z,67.98
2023-02-11T03:38:17.926Z,67.51
2023-02-11T03:40:45.494Z,68.09
2023-02-11T03:43:17.521Z,67.55
2023-02-11T03:45:46.367Z,69.86
2023-02-11T03:48:16.814Z,68.92
2023-02-11T03:50:46.638Z,67.42
2023-02-11T03:53:14.819Z,67.30
2023-02-11T03:55:44.036Z,68.87
2023-02-11T03:58:11.297Z,65.03
2023-02-11T04:00:41.198Z,68.34
2023-02-11T04:03:09.336Z,71.35
2023-02-11T04:05:36.206Z,66.74
2023-02-11T04:08:05.267Z,66.24
2023-02-11T04:10:32.033Z,68.98
2023-02-11T04:12:58.858Z,70.37
2023-02-11T04:15:25.773Z,67.91
2023-02-11T04:17:52.578Z,69.04
2023-02-11T04:20:19.636Z,67.43
2023-02-11T04:22:46.489Z,66.29
2023-02-11T04:25:14.702Z,63.66
2023-02-11T04:27:41.428Z,66.51
2023-02-11T04:30:09.665Z,67.60
2023-02-11T04:32:36.469Z,69.01
2023-02-11T04:35:03.283Z,67.65
2023-02-11T04:37:30.139Z,67.54
2023-02-11T04:39:56.950Z,67.58
2023-02-11T04:42:25.131Z,68.91
2023-02-11T04:44:51.882Z,69.25
2023-02-11T04:47:18.690Z,69.69
2023-02-11T04:49:45.484Z,70.95
2023-02-11T04:52:12.310Z,69.53
2023-02-11T04:54:39.289Z,68.04
2023-02-11T04:57:06.158Z,69.86
2023-02-11T04:59:34.253Z,70.33
2023-02-11T05:02:01.062Z,67.36
2023-02-11T05:04:27.939Z,67.20
2023-02-11T05:06:55.652Z,67.14
2023-02-11T05:09:24.061Z,66.33
2023-02-11T05:11:50.891Z,68.79
2023-02-11T05:14:17.624Z,71.22
2023-02-11T05:16:45.947Z,72.14
2023-02-11T05:19:12.873Z,71.24
2023-02-11T05:21:41.051Z,66.61
2023-02-11T05:24:12.300Z,68.11
2023-02-11T05:26:39.013Z,70.92
2023-02-11T05:29:05.800Z,72.81
2023-02-11T05:31:32.547Z,72.88
2023-02-11T05:34:00.726Z,70.85
2023-02-11T05:36:27.478Z,69.98
2023-02-11T05:38:54.264Z,70.71
2023-02-11T05:41:21.040Z,71.83
2023-02-11T05:43:48.301Z,75.39
2023-02-11T05:46:15.061Z,71.12
2023-02-11T05:48:41.777Z,68.27
2023-02-11T05:51:09.985Z,65.87
2023-02-11T05:53:37.135Z,66.99
2023-02-11T05:56:04.465Z,73.27
2023-02-11T05:58:32.249Z,71.98
2023-02-11T06:00:59.084Z,66.91
2023-02-11T06:03:25.929Z,68.28
2023-02-11T06:05:53.009Z,68.46
2023-02-11T06:08:21.290Z,69.69
2023-02-11T06:10:48.080Z,68.72
2023-02-11T06:13:14.870Z,69.70
2023-02-11T06:15:41.583Z,71.64
2023-02-11T06:18:08.411Z,69.97
2023-02-11T06:20:35.248Z,68.35
2023-02-11T06:23:01.965Z,69.55
2023-02-11T06:25:30.136Z,71.66
2023-02-11T06:27:57.204Z,70.80
2023-02-11T06:30:24.007Z,69.63
2023-02-11T06:32:50.841Z,70.19
2023-02-11T06:35:17.847Z,68.85
2023-02-11T06:37:44.690Z,68.94
2023-02-11T06:40:11.824Z,68.80
2023-02-11T06:42:39.955Z,70.82
2023-02-11T06:45:07.552Z,70.07
2023-02-11T06:47:34.299Z,71.97
2023-02-11T06:50:01.153Z,69.20
2023-02-11T06:52:27.975Z,69.20
2023-02-11T06:54:54.718Z,67.01
2023-02-11T06:57:21.490Z,68.22
2023-02-11T06:59:49.805Z,70.03
2023-02-11T07:02:18.497Z,71.17
2023-02-11T07:04:49.735Z,72.96
2023-02-11T07:07:17.626Z,74.61
2023-02-11T07:09:44.683Z,72.54
2023-02-11T07:12:11.467Z,67.93
2023-02-11T07:14:38.394Z,69.98
2023-02-11T07:17:06.582Z,68.10
2023-02-11T07:19:33.361Z,71.23
2023-02-11T07:22:00.140Z,72.16
2023-02-11T07:24:26.866Z,73.76
2023-02-11T07:26:53.970Z,72.17
2023-02-11T07:29:20.808Z,69.49
2023-02-11T07:31:47.617Z,68.25
2023-02-11T07:34:15.880Z,71.33
2023-02-11T07:36:42.681Z,71.51
2023-02-11T07:39:09.462Z,71.71
2023-02-11T07:41:38.041Z,71.56
2023-02-11T07:44:05.799Z,69.12
2023-02-11T07:46:33.168Z,69.70
2023-02-11T07:49:00.312Z,69.29
2023-02-11T07:51:29.912Z,70.80
2023-02-11T07:53:58.789Z,65.44
2023-02-11T07:56:26.111Z,62.64
2023-02-11T07:58:53.354Z,62.53
2023-02-11T08:01:21.978Z,61.11
2023-02-11T08:03:48.694Z,60.08
2023-02-11T08:06:17.328Z,56.13
2023-02-11T08:08:45.449Z,53.79
2023-02-11T08:11:14.822Z,52.97
2023-02-11T08:13:42.096Z,51.75
2023-02-11T08:16:09.139Z,51.53
2023-02-11T08:18:37.083Z,53.24
2023-02-11T08:21:05.576Z,52.65
2023-02-11T08:23:32.325Z,52.51
2023-02-11T08:26:02.732Z,50.47
2023-02-11T08:28:29.641Z,49.01
2023-02-11T08:30:56.597Z,48.59
2023-02-11T08:33:23.455Z,47.12
2023-02-11T08:35:52.384Z,46.52
2023-02-11T08:38:20.200Z,44.77
2023-02-11T08:40:46.985Z,45.52
2023-02-11T08:43:15.460Z,47.67
2023-02-11T08:45:42.258Z,47.86
2023-02-11T08:48:09.004Z,47.51
2023-02-11T08:50:35.760Z,46.90
2023-02-11T08:53:02.651Z,45.71
2023-02-11T08:55:30.704Z,44.61
2023-02-11T08:57:57.513Z,45.24
2023-02-11T09:00:25.962Z,45.21
2023-02-11T09:02:52.787Z,46.34
2023-02-11T09:05:19.699Z,48.02
2023-02-11T09:07:46.433Z,46.75
2023-02-11T09:10:13.263Z,47.04
2023-02-11T09:12:40.110Z,45.58
2023-02-11T09:15:07.748Z,45.93
2023-02-11T09:17:35.877Z,45.49
2023-02-11T09:20:02.914Z,45.67
2023-02-11T09:22:29.818Z,45.19
2023-02-11T09:24:56.702Z,45.38
2023-02-11T09:27:23.546Z,45.31
2023-02-11T09:29:50.570Z,46.05
2023-02-11T09:32:17.408Z,46.39
2023-02-11T09:34:45.616Z,46.18
2023-02-11T09:37:12.416Z,48.16
2023-02-11T09:39:39.144Z,46.24
2023-02-11T09:42:47.877Z,47.00
2023-02-11T09:45:33.221Z,48.52
2023-02-11T09:48:22.349Z,50.06
2023-02-11T09:51:19.187Z,49.00
2023-02-11T09:53:50.239Z,48.57
2023-02-11T09:56:17.010Z,49.35
2023-02-11T09:58:44.814Z,49.24
2023-02-11T10:01:21.204Z,51.23
2023-02-11T10:04:01.539Z,52.30
2023-02-11T10:06:42.959Z,51.80
2023-02-11T10:09:34.813Z,52.42
2023-02-11T10:12:14.284Z,49.99
2023-02-11T10:15:06.392Z,49.57
2023-02-11T10:17:42.281Z,49.09
2023-02-11T10:20:23.637Z,47.67
2023-02-11T10:22:54.466Z,48.00
2023-02-11T10:25:24.514Z,47.92
2023-02-11T10:27:52.688Z,48.42
2023-02-11T10:30:26.807Z,48.02
2023-02-11T10:32:57.076Z,47.95
2023-02-11T10:35:24.339Z,47.84
2023-02-11T10:37:53.203Z,46.87
2023-02-11T10:40:22.176Z,46.80
2023-02-11T10:42:53.589Z,48.46
2023-02-11T10:45:28.108Z,49.47
2023-02-11T10:47:54.912Z,49.54
2023-02-11T10:50:27.540Z,50.08
2023-02-11T10:53:12.463Z,48.59
2023-02-11T10:55:48.185Z,46.97
2023-02-11T10:58:25.752Z,47.24
2023-02-11T11:00:54.301Z,49.01
2023-02-11T11:03:22.989Z,48.40
2023-02-11T11:05:52.729Z,47.60
2023-02-11T11:08:23.085Z,47.32
2023-02-11T11:11:05.909Z,46.27
2023-02-11T11:13:35.490Z,45.01
2023-02-11T11:16:16.751Z,45.26
2023-02-11T11:18:45.252Z,44.26
2023-02-11T11:21:15.483Z,43.65
2023-02-11T11:23:48.720Z,43.82
2023-02-11T11:26:17.311Z,42.49
2023-02-11T11:28:53.346Z,41.16
2023-02-11T11:31:23.786Z,40.58
2023-02-11T11:33:54.193Z,40.55
2023-02-11T11:36:23.017Z,39.77
2023-02-11T11:38:58.237Z,41.41
2023-02-11T11:41:27.429Z,41.67
2023-02-11T11:43:58.530Z,40.74
2023-02-11T11:46:28.247Z,40.56
2023-02-11T11:49:00.898Z,40.85
2023-02-11T11:51:28.212Z,41.92
2023-02-11T11:54:00.618Z,41.59
2023-02-11T11:56:30.060Z,41.18
2023-02-11T11:58:59.669Z,40.41
2023-02-11T12:01:39.097Z,40.21
2023-02-11T12:04:35.316Z,41.18
2023-02-11T12:07:19.180Z,40.55
2023-02-11T12:10:04.244Z,40.25
2023-02-11T12:12:46.747Z,40.83
2023-02-11T12:15:29.852Z,40.29
2023-02-11T12:18:26.576Z,40.13
2023-02-11T12:21:12.184Z,41.41
2023-02-11T12:23:54.177Z,39.34
2023-02-11T12:26:24.066Z,38.92
2023-02-11T12:29:06.067Z,37.62
2023-02-11T12:31:47.329Z,37.80
2023-02-11T12:34:48.040Z,38.25
2023-02-11T12:37:25.800Z,38.67
2023-02-11T12:40:03.269Z,39.22
2023-02-11T12:42:45.047Z,40.01
2023-02-11T12:45:28.015Z,39.53
2023-02-11T12:48:07.801Z,38.38
2023-02-11T12:50:46.120Z,38.89
2023-02-11T12:53:30.016Z,38.15
2023-02-11T12:56:00.745Z,37.50
2023-02-11T12:58:44.398Z,36.92
2023-02-11T13:01:18.626Z,37.32
2023-02-11T13:03:49.153Z,37.92
2023-02-11T13:06:18.743Z,39.04
2023-02-11T13:08:48.530Z,39.18
2023-02-11T13:11:18.382Z,40.21
2023-02-11T13:13:55.873Z,41.46
2023-02-11T13:16:33.159Z,40.81
2023-02-11T13:19:06.920Z,41.99
2023-02-11T13:21:47.176Z,41.42
2023-02-11T13:24:22.367Z,40.35
2023-02-11T13:26:58.875Z,39.84
2023-02-11T13:29:49.829Z,40.05
2023-02-11T13:32:19.428Z,38.65
2023-02-11T13:34:57.559Z,41.31
2023-02-11T13:37:26.613Z,41.27
2023-02-11T13:40:01.416Z,39.41
2023-02-11T13:42:29.582Z,40.21
2023-02-11T13:44:58.098Z,38.35
2023-02-11T13:47:28.945Z,38.14
2023-02-11T13:49:57.139Z,37.43
2023-02-11T13:52:27.270Z,37.43
2023-02-11T13:54:57.701Z,35.96
2023-02-11T13:57:34.216Z,35.89
2023-02-11T14:00:40.477Z,37.08
2023-02-11T14:03:30.640Z,38.32
2023-02-11T14:06:12.511Z,39.51
2023-02-11T14:09:00.325Z,37.52
2023-02-11T14:11:48.293Z,37.87
2023-02-11T14:14:24.828Z,36.97
2023-02-11T14:17:30.261Z,38.65
2023-02-11T14:19:57.412Z,35.67
2023-02-11T14:22:28.190Z,37.24
2023-02-11T14:24:58.398Z,35.64
2023-02-11T14:27:41.634Z,35.04
2023-02-11T14:30:33.313Z,38.32
2023-02-11T14:33:33.197Z,38.87
2023-02-11T14:36:12.790Z,38.66
2023-02-11T14:38:56.840Z,38.13
2023-02-11T14:41:26.318Z,41.04
2023-02-11T14:43:57.557Z,41.45
2023-02-11T14:46:31.037Z,43.22
2023-02-11T14:49:00.403Z,41.67
2023-02-11T14:51:31.779Z,43.08
2023-02-11T14:54:04.504Z,45.62
2023-02-11T14:56:32.154Z,43.94
2023-02-11T14:58:59.308Z,45.25
2023-02-11T15:01:29.798Z,44.82
2023-02-11T15:03:56.924Z,48.13
2023-02-11T15:06:26.711Z,47.28
2023-02-11T15:08:57.722Z,45.44
2023-02-11T15:11:25.468Z,44.93
2023-02-11T15:13:55.319Z,43.75
2023-02-11T15:16:24.875Z,46.02
2023-02-11T15:18:55.103Z,47.12
2023-02-11T15:21:24.460Z,52.28
2023-02-11T15:24:01.168Z,48.51
2023-02-11T15:26:29.244Z,50.98
2023-02-11T15:28:56.360Z,56.05
2023-02-11T15:31:25.635Z,55.00
2023-02-11T15:33:53.624Z,52.00
2023-02-11T15:36:23.069Z,50.84
2023-02-11T15:39:29.554Z,48.13
2023-02-11T15:41:56.363Z,52.11
2023-02-11T15:44:31.230Z,57.67
2023-02-11T15:46:58.540Z,58.13
2023-02-11T15:49:26.436Z,60.19
2023-02-11T15:51:55.692Z,63.74
2023-02-11T15:54:27.245Z,67.01
2023-02-11T15:56:59.418Z,69.84
2023-02-11T15:59:28.605Z,67.84
2023-02-11T16:01:55.726Z,68.13
2023-02-11T16:04:24.929Z,64.44
2023-02-11T16:06:53.560Z,64.91
2023-02-11T16:09:31.401Z,66.24
2023-02-11T16:12:01.049Z,68.00
2023-02-11T16:14:33.462Z,71.73
2023-02-11T16:17:05.221Z,67.80
2023-02-11T16:19:33.894Z,64.91
2023-02-11T16:22:06.370Z,72.98
2023-02-11T16:24:36.725Z,71.69
2023-02-11T16:27:06.840Z,74.07
2023-02-11T16:29:36.962Z,72.98
2023-02-11T16:32:09.217Z,69.75
2023-02-11T16:34:36.820Z,72.76
2023-02-11T16:37:04.716Z,74.22
2023-02-11T16:39:31.474Z,75.87
2023-02-11T16:42:00.185Z,76.79
2023-02-11T16:44:27.704Z,73.79
2023-02-11T16:46:55.639Z,72.30
2023-02-11T16:49:25.508Z,73.23
2023-02-11T16:51:55.768Z,74.52
2023-02-11T16:54:23.724Z,78.28
2023-02-11T16:56:50.821Z,72.53
2023-02-11T16:59:19.242Z,74.19
2023-02-11T17:01:48.032Z,74.78
2023-02-11T17:04:19.090Z,71.85
2023-02-11T17:06:45.911Z,73.79
2023-02-11T17:09:17.767Z,74.35
2023-02-11T17:11:44.657Z,72.53
2023-02-11T17:14:11.393Z,73.83
2023-02-11T17:16:39.655Z,73.73
2023-02-11T17:19:06.445Z,73.92
2023-02-11T17:21:33.238Z,72.45
2023-02-11T17:24:00.018Z,64.77
2023-02-11T17:26:26.809Z,70.49
2023-02-11T17:28:53.610Z,71.26
2023-02-11T17:31:20.567Z,69.51
2023-02-11T17:33:48.700Z,70.35
2023-02-11T17:36:15.541Z,71.82
2023-02-11T17:38:42.291Z,67.36
2023-02-11T17:41:09.007Z,70.35
2023-02-11T17:43:35.738Z,68.81
2023-02-11T17:46:06.234Z,68.67
2023-02-11T17:48:33.192Z,72.91
2023-02-11T17:51:01.284Z,71.42
2023-02-11T17:53:28.031Z,74.03
2023-02-11T17:55:55.026Z,70.41
2023-02-11T17:58:21.971Z,72.72
2023-02-11T18:00:48.776Z,73.46
2023-02-11T18:03:15.666Z,74.43
2023-02-11T18:05:42.481Z,73.46
2023-02-11T18:08:10.619Z,75.31
2023-02-11T18:10:40.663Z,75.28
2023-02-11T18:13:07.525Z,75.28
2023-02-11T18:15:34.240Z,75.17
2023-02-11T18:18:01.010Z,72.55
2023-02-11T18:20:27.841Z,73.51
2023-02-11T18:22:54.681Z,72.21
2023-02-11T18:25:22.821Z,72.95
2023-02-11T18:27:49.554Z,72.84
2023-02-11T18:30:18.265Z,72.37
2023-02-11T18:32:45.432Z,74.97
2023-02-11T18:35:14.810Z,74.55
2023-02-11T18:37:42.264Z,74.07
2023-02-11T18:40:10.629Z,73.97
2023-02-11T18:42:39.288Z,74.30
2023-02-11T18:45:07.639Z,74.50
2023-02-11T18:47:34.348Z,73.30
2023-02-11T18:50:01.145Z,74.60
2023-02-11T18:52:27.848Z,76.19
2023-02-11T18:54:54.576Z,75.78
2023-02-11T18:57:21.400Z,74.58
2023-02-11T18:59:49.807Z,75.30
2023-02-11T19:02:16.682Z,75.11
2023-02-11T19:04:44.080Z,76.62
2023-02-11T19:07:10.877Z,74.85
2023-02-11T19:09:37.689Z,73.16
2023-02-11T19:12:05.065Z,73.55
2023-02-11T19:14:32.797Z,75.03
2023-02-11T19:17:03.052Z,75.45
2023-02-11T19:19:32.164Z,76.61
2023-02-11T19:22:00.094Z,77.60
2023-02-11T19:24:27.883Z,76.29
2023-02-11T19:26:57.405Z,77.56
2023-02-11T19:29:24.489Z,76.23
2023-02-11T19:31:51.440Z,79.04
2023-02-11T19:34:21.140Z,74.58
2023-02-11T19:36:49.176Z,76.58
2023-02-11T19:39:16.637Z,75.11
2023-02-11T19:41:43.417Z,79.60
2023-02-11T19:44:10.591Z,80.17
2023-02-11T19:46:39.490Z,79.73
2023-02-11T19:49:06.613Z,79.01
2023-02-11T19:51:34.706Z,81.10
2023-02-11T19:54:01.461Z,81.13
2023-02-11T19:56:28.591Z,80.81
2023-02-11T19:58:55.503Z,81.69
2023-02-11T20:01:23.674Z,81.77
2023-02-11T20:03:51.410Z,82.93
2023-02-11T20:06:21.591Z,82.45
2023-02-11T20:08:53.340Z,82.45
2023-02-11T20:11:20.262Z,80.85
2023-02-11T20:13:47.028Z,77.89
2023-02-11T20:16:15.601Z,80.00
2023-02-11T20:18:42.697Z,78.25
2023-02-11T20:21:11.251Z,78.82
2023-02-11T20:23:38.238Z,79.32
2023-02-11T20:26:07.978Z,79.00
2023-02-11T20:28:35.478Z,81.94
2023-02-11T20:31:03.135Z,83.88
2023-02-11T20:33:30.610Z,81.26
2023-02-11T20:35:58.585Z,79.06
2023-02-11T20:38:26.420Z,77.53
2023-02-11T20:40:53.539Z,76.25
2023-02-11T20:43:22.193Z,77.46
2023-02-11T20:45:49.315Z,78.58
2023-02-11T20:48:16.177Z,76.45
2023-02-11T20:50:43.062Z,74.32
2023-02-11T20:53:09.963Z,74.32
2023-02-11T20:55:38.114Z,76.03
2023-02-11T20:58:05.950Z,77.00
2023-02-11T21:00:35.604Z,77.77
2023-02-11T21:03:02.589Z,77.93
2023-02-11T21:05:29.462Z,76.22
2023-02-11T21:07:56.309Z,75.81
2023-02-11T21:10:23.093Z,76.43
2023-02-11T21:12:50.043Z,76.12
2023-02-11T21:15:16.877Z,74.37
2023-02-11T21:17:45.081Z,77.15
2023-02-11T21:20:12.106Z,75.27
2023-02-11T21:22:38.769Z,72.43
2023-02-11T21:25:06.044Z,71.81
2023-02-11T21:27:32.877Z,70.12
2023-02-11T21:30:00.044Z,72.98
2023-02-11T21:32:26.939Z,69.60
2023-02-11T21:34:55.181Z,69.68
2023-02-11T21:37:21.936Z,71.88
2023-02-11T21:39:49.134Z,72.53
2023-02-11T21:42:15.970Z,71.56
2023-02-11T21:44:42.701Z,71.49
2023-02-11T21:47:09.527Z,69.72
2023-02-11T21:49:36.301Z,73.33
2023-02-11T21:52:04.869Z,72.87
2023-02-11T21:54:31.661Z,71.76
2023-02-11T21:56:58.783Z,73.37
2023-02-11T21:59:25.600Z,67.97
2023-02-11T22:01:52.750Z,72.25
2023-02-11T22:04:19.569Z,74.13
2023-02-11T22:06:46.374Z,74.37
2023-02-11T22:09:14.586Z,72.93
2023-02-11T22:11:41.506Z,71.73
2023-02-11T22:14:08.245Z,68.18
2023-02-11T22:16:35.549Z,68.30
2023-02-11T22:19:02.394Z,69.25
2023-02-11T22:21:29.783Z,69.00
2023-02-11T22:23:56.527Z,67.46
2023-02-11T22:26:26.353Z,70.76
2023-02-11T22:28:53.680Z,70.54
2023-02-11T22:31:24.383Z,69.35
2023-02-11T22:33:51.584Z,69.23
2023-02-11T22:36:20.214Z,71.15
2023-02-11T22:38:49.189Z,72.93
2023-02-11T22:41:17.029Z,69.75
2023-02-11T22:43:45.627Z,70.33
2023-02-11T22:46:17.266Z,69.94
2023-02-11T22:48:44.226Z,70.74
2023-02-11T22:51:13.036Z,74.12
2023-02-11T22:53:41.695Z,75.41
2023-02-11T22:56:12.676Z,73.60
2023-02-11T22:58:40.897Z,72.54
2023-02-11T23:01:09.069Z,68.96
2023-02-11T23:03:36.137Z,68.68
2023-02-11T23:06:02.983Z,70.31
2023-02-11T23:08:30.365Z,70.64
2023-02-11T23:11:02.492Z,67.96
2023-02-11T23:13:29.206Z,66.61
2023-02-11T23:15:56.164Z,68.32
2023-02-11T23:18:24.516Z,73.78
2023-02-11T23:20:51.230Z,75.38
2023-02-11T23:23:17.954Z,71.09
2023-02-11T23:25:44.753Z,68.72
2023-02-11T23:28:12.363Z,65.24
2023-02-11T23:30:39.559Z,67.83
2023-02-11T23:33:06.298Z,68.88
2023-02-11T23:35:34.560Z,66.93
2023-02-11T23:38:01.418Z,64.89
2023-02-11T23:40:28.154Z,65.82
2023-02-11T23:42:54.909Z,68.70
2023-02-11T23:45:21.682Z,66.95
2023-02-11T23:47:48.672Z,70.44
2023-02-11T23:50:15.465Z,70.95
2023-02-11T23:52:43.668Z,71.19
2023-02-11T23:55:10.887Z,71.78
2023-02-11T23:57:37.831Z,71.01
